createdAt,value
2022-08-23T00:03:50.543Z,9.77
2022-08-23T00:08:05.394Z,10.00
2022-08-23T00:12:21.328Z,12.15
2022-08-23T00:16:37.146Z,11.40
2022-08-23T00:20:53.894Z,10.57
2022-08-23T00:25:11.015Z,11.45
2022-08-23T00:29:27.644Z,10.25
2022-08-23T00:33:42.889Z,11.73
2022-08-23T00:38:32.796Z,11.00
2022-08-23T00:42:53.635Z,9.13
2022-08-23T00:47:26.891Z,9.93
2022-08-23T00:51:53.299Z,11.93
2022-08-23T00:56:10.390Z,13.07
2022-08-23T01:00:25.275Z,11.93
2022-08-23T01:04:41.899Z,12.20
2022-08-23T01:09:01.058Z,9.95
2022-08-23T01:13:18.846Z,12.77
2022-08-23T01:17:39.064Z,11.03
2022-08-23T01:21:59.026Z,11.20
2022-08-23T01:26:15.752Z,13.40
2022-08-23T01:30:39.019Z,10.97
2022-08-23T01:34:53.529Z,12.82
2022-08-23T01:39:09.113Z,10.63
2022-08-23T01:43:25.032Z,10.45
2022-08-23T01:47:48.818Z,11.97
2022-08-23T01:52:03.849Z,10.15
2022-08-23T01:56:20.062Z,12.30
2022-08-23T02:00:45.493Z,14.50
2022-08-23T02:04:59.889Z,11.00
2022-08-23T02:09:17.373Z,11.98
2022-08-23T02:13:32.521Z,11.00
2022-08-23T02:17:48.148Z,8.82
2022-08-23T02:22:02.098Z,10.45
2022-08-23T02:26:16.925Z,11.43
2022-08-23T02:30:32.911Z,12.97
2022-08-23T02:34:51.239Z,10.20
2022-08-23T02:39:20.470Z,12.02
2022-08-23T02:43:36.474Z,11.67
2022-08-23T02:47:53.846Z,10.55
2022-08-23T02:52:13.496Z,10.40
2022-08-23T02:56:27.476Z,10.80
2022-08-23T03:00:44.446Z,10.20
2022-08-23T03:04:58.274Z,10.95
2022-08-23T03:09:16.648Z,11.27
2022-08-23T03:13:31.066Z,12.57
2022-08-23T03:17:45.569Z,11.30
2022-08-23T03:22:03.064Z,10.80
2022-08-23T03:26:18.867Z,13.13
2022-08-23T03:30:33.829Z,12.80
2022-08-23T03:34:48.487Z,12.90
2022-08-23T03:39:02.812Z,9.87
2022-08-23T03:43:18.042Z,12.25
2022-08-23T03:47:31.885Z,12.82
2022-08-23T03:51:46.971Z,12.55
2022-08-23T03:56:00.802Z,12.20
2022-08-23T04:00:20.538Z,11.02
2022-08-23T04:04:37.872Z,11.10
2022-08-23T04:09:17.666Z,11.63
2022-08-23T04:13:33.119Z,12.82
2022-08-23T04:17:50.433Z,12.98
2022-08-23T04:22:05.273Z,12.17
2022-08-23T04:26:30.195Z,11.48
2022-08-23T04:30:44.822Z,12.40
2022-08-23T04:35:02.894Z,9.75
2022-08-23T04:39:17.853Z,11.97
2022-08-23T04:43:32.857Z,11.52
2022-08-23T04:47:46.734Z,11.05
2022-08-23T04:52:01.948Z,12.77
2022-08-23T04:56:17.079Z,11.55
2022-08-23T05:00:30.960Z,10.32
2022-08-23T05:04:45.353Z,12.27
2022-08-23T05:09:02.157Z,9.35
2022-08-23T05:13:17.228Z,13.32
2022-08-23T05:17:31.183Z,10.43
2022-08-23T05:21:45.468Z,11.10
2022-08-23T05:26:01.951Z,11.55
2022-08-23T05:30:25.111Z,11.00
2022-08-23T05:34:40.286Z,9.53
2022-08-23T05:38:57.308Z,8.80
2022-08-23T05:43:12.798Z,10.27
2022-08-23T05:47:28.144Z,13.50
2022-08-23T05:52:14.950Z,10.20
2022-08-23T05:56:32.905Z,15.18
2022-08-23T06:00:48.648Z,11.57
2022-08-23T06:05:03.045Z,10.20
2022-08-23T06:09:19.428Z,11.55
2022-08-23T06:13:33.842Z,11.10
2022-08-23T06:17:49.801Z,8.47
2022-08-23T06:22:04.113Z,10.88
2022-08-23T06:26:25.333Z,11.48
2022-08-23T06:30:40.267Z,10.50
2022-08-23T06:35:38.129Z,10.40
2022-08-23T06:39:59.126Z,13.20
2022-08-23T06:44:33.885Z,10.60
2022-08-23T06:49:05.232Z,12.17
2022-08-23T06:53:20.898Z,14.68
2022-08-23T06:57:46.442Z,11.88
2022-08-23T07:02:25.339Z,14.73
2022-08-23T07:06:45.035Z,11.90
2022-08-23T07:11:00.318Z,16.33
2022-08-23T07:15:14.786Z,11.50
2022-08-23T07:19:34.162Z,10.77
2022-08-23T07:23:48.078Z,10.25
2022-08-23T07:28:07.446Z,8.23
2022-08-23T07:32:24.328Z,6.70
2022-08-23T07:36:43.530Z,8.00
2022-08-23T07:41:00.613Z,8.02
2022-08-23T07:45:16.714Z,7.40
2022-08-23T07:49:34.977Z,7.57
2022-08-23T07:53:50.519Z,11.07
2022-08-23T07:58:06.870Z,10.53
2022-08-23T08:02:41.015Z,11.05
2022-08-23T08:07:18.819Z,8.98
2022-08-23T08:11:36.691Z,7.85
2022-08-23T08:15:51.960Z,7.57
2022-08-23T08:20:10.429Z,8.38
2022-08-23T08:24:43.609Z,7.07
2022-08-23T08:28:59.619Z,7.90
2022-08-23T08:33:14.890Z,7.78
2022-08-23T08:37:30.987Z,7.65
2022-08-23T08:42:04.533Z,6.57
2022-08-23T08:46:25.991Z,6.28
2022-08-23T08:50:43.401Z,9.10
2022-08-23T08:55:05.103Z,8.70
2022-08-23T08:59:22.937Z,7.73
2022-08-23T09:03:37.990Z,8.30
2022-08-23T09:08:09.502Z,8.20
2022-08-23T09:12:38.489Z,8.27
2022-08-23T09:16:54.915Z,7.55
2022-08-23T09:21:10.984Z,8.88
2022-08-23T09:25:25.898Z,9.20
2022-08-23T09:30:03.442Z,9.35
2022-08-23T09:34:21.020Z,9.13
2022-08-23T09:39:07.428Z,7.97
2022-08-23T09:43:26.169Z,8.03
2022-08-23T09:47:44.877Z,7.80
2022-08-23T09:52:16.096Z,8.73
2022-08-23T09:56:42.380Z,8.27
2022-08-23T10:01:11.946Z,6.35
2022-08-23T10:05:39.335Z,5.90
2022-08-23T10:10:15.961Z,8.53
2022-08-23T10:14:32.976Z,6.65
2022-08-23T10:18:56.575Z,9.73
2022-08-23T10:23:25.871Z,6.68
2022-08-23T10:28:12.853Z,6.27
2022-08-23T10:32:36.149Z,6.53
2022-08-23T10:37:01.484Z,6.85
2022-08-23T10:41:28.937Z,6.50
2022-08-23T10:45:45.451Z,6.50
2022-08-23T10:50:14.690Z,6.88
2022-08-23T10:54:45.899Z,6.57
2022-08-23T10:59:14.477Z,6.63
2022-08-23T11:03:31.528Z,7.15
2022-08-23T11:08:00.287Z,8.25
2022-08-23T11:12:23.706Z,7.10
2022-08-23T11:16:43.115Z,8.00
2022-08-23T11:21:33.717Z,8.48
2022-08-23T11:25:53.213Z,7.10
2022-08-23T11:30:46.104Z,7.03
2022-08-23T11:35:12.221Z,8.23
2022-08-23T11:39:29.037Z,7.00
2022-08-23T11:43:47.086Z,7.05
2022-08-23T11:48:20.616Z,6.88
2022-08-23T11:53:17.030Z,5.63
2022-08-23T11:57:46.525Z,7.23
2022-08-23T12:02:00.544Z,6.72
2022-08-23T12:06:43.632Z,8.40
2022-08-23T12:11:11.265Z,7.30
2022-08-23T12:16:06.814Z,6.35
2022-08-23T12:20:33.428Z,6.90
2022-08-23T12:24:52.817Z,6.40
2022-08-23T12:29:19.648Z,8.32
2022-08-23T12:33:41.937Z,9.05
2022-08-23T12:38:04.022Z,6.93
2022-08-23T12:42:20.157Z,6.40
2022-08-23T12:46:38.965Z,8.50
2022-08-23T12:50:56.151Z,6.32
2022-08-23T12:55:16.074Z,9.87
2022-08-23T12:59:37.428Z,7.93
2022-08-23T13:03:57.574Z,7.35
2022-08-23T13:08:16.604Z,6.97
2022-08-23T13:12:30.605Z,5.50
2022-08-23T13:16:46.065Z,6.10
2022-08-23T13:21:26.773Z,6.53
2022-08-23T13:25:43.144Z,7.30
2022-08-23T13:30:04.115Z,5.93
2022-08-23T13:34:34.426Z,8.15
2022-08-23T13:38:50.651Z,6.20
2022-08-23T13:43:10.062Z,5.57
2022-08-23T13:47:36.478Z,6.55
2022-08-23T13:56:50.881Z,5.95
2022-08-23T14:01:07.976Z,7.25
2022-08-23T14:05:25.601Z,6.80
2022-08-23T14:16:32.168Z,6.70
2022-08-23T14:20:34.055Z,5.35
2022-08-23T14:24:57.842Z,5.43
2022-08-23T14:29:15.384Z,5.55
2022-08-23T14:33:31.295Z,5.93
2022-08-23T14:42:57.699Z,7.70
2022-08-23T14:47:15.267Z,6.72
2022-08-23T14:51:33.480Z,7.07
2022-08-23T14:56:01.143Z,7.50
2022-08-23T15:06:33.867Z,8.57
2022-08-23T15:13:14.310Z,7.77
2022-08-23T15:15:28.509Z,7.78
2022-08-23T15:20:31.066Z,7.30
2022-08-23T15:24:46.486Z,8.13
2022-08-23T15:29:00.938Z,7.95
2022-08-23T15:33:15.846Z,8.38
2022-08-23T15:37:29.915Z,7.60
2022-08-23T15:41:45.414Z,7.00
2022-08-23T15:46:00.078Z,8.60
2022-08-23T15:50:14.568Z,7.32
2022-08-23T15:54:28.603Z,6.77
2022-08-23T15:58:44.235Z,8.82
2022-08-23T16:03:18.446Z,9.20
2022-08-23T16:07:33.280Z,9.50
2022-08-23T16:11:49.731Z,6.93
2022-08-23T16:16:06.013Z,6.47
2022-08-23T16:20:20.262Z,8.23
2022-08-23T16:24:34.664Z,7.13
2022-08-23T16:28:50.729Z,6.35
2022-08-23T16:33:08.498Z,7.93
2022-08-23T16:37:22.524Z,6.70
2022-08-23T16:41:36.424Z,6.97
2022-08-23T16:45:50.623Z,8.32
2022-08-23T16:50:06.494Z,6.27
2022-08-23T16:54:21.379Z,9.15
2022-08-23T16:58:35.696Z,7.45
2022-08-23T17:02:49.850Z,6.93
2022-08-23T17:07:05.246Z,6.10
2022-08-23T17:11:20.650Z,8.40
2022-08-23T17:15:37.551Z,7.60
2022-08-23T17:19:51.412Z,6.93
2022-08-23T17:24:07.384Z,7.70
2022-08-23T17:28:21.519Z,6.70
2022-08-23T17:32:36.280Z,7.33
2022-08-23T17:36:53.083Z,7.93
2022-08-23T17:41:08.541Z,6.35
2022-08-23T17:45:23.022Z,6.85
2022-08-23T17:49:37.000Z,8.43
2022-08-23T17:53:51.957Z,8.07
2022-08-23T17:58:07.345Z,8.15
2022-08-23T18:02:21.768Z,8.73
2022-08-23T18:06:36.670Z,6.45
2022-08-23T18:10:50.574Z,7.65
2022-08-23T18:15:06.871Z,8.23
2022-08-23T18:19:20.792Z,7.88
2022-08-23T18:23:34.617Z,7.82
2022-08-23T18:28:05.508Z,9.88
2022-08-23T18:32:21.054Z,8.67
2022-08-23T18:36:35.712Z,7.50
2022-08-23T18:40:50.367Z,7.63
2022-08-23T18:45:06.064Z,8.07
2022-08-23T18:49:21.618Z,7.93
2022-08-23T18:53:36.429Z,6.63
2022-08-23T18:57:50.386Z,10.70
2022-08-23T19:02:04.712Z,8.75
2022-08-23T19:06:20.118Z,8.50
2022-08-23T19:10:34.393Z,8.95
2022-08-23T19:14:48.961Z,9.03
2022-08-23T19:19:02.989Z,8.88
2022-08-23T19:23:21.345Z,8.05
2022-08-23T19:27:36.375Z,7.23
2022-08-23T19:31:51.029Z,9.85
2022-08-23T19:36:06.338Z,8.40
2022-08-23T19:40:27.159Z,12.30
2022-08-23T19:44:41.082Z,13.30
2022-08-23T19:48:55.004Z,10.85
2022-08-23T19:53:09.673Z,9.23
2022-08-23T19:57:24.904Z,6.87
2022-08-23T20:01:38.761Z,7.40
2022-08-23T20:05:52.960Z,8.35
2022-08-23T20:10:08.560Z,8.40
2022-08-23T20:14:25.342Z,8.82
2022-08-23T20:18:39.120Z,8.02
2022-08-23T20:23:10.668Z,10.23
2022-08-23T20:27:30.646Z,9.88
2022-08-23T20:31:54.704Z,9.10
2022-08-23T20:36:09.208Z,11.23
2022-08-23T20:40:25.924Z,8.60
2022-08-23T20:44:39.803Z,9.30
2022-08-23T20:48:57.462Z,8.70
2022-08-23T20:53:12.771Z,10.80
2022-08-23T20:57:28.647Z,11.52
2022-08-23T21:01:51.261Z,10.55
2022-08-23T21:06:09.746Z,8.93
2022-08-23T21:10:23.848Z,11.68
2022-08-23T21:14:38.087Z,8.73
2022-08-23T21:18:55.356Z,10.13
2022-08-23T21:23:11.079Z,11.80
2022-08-23T21:27:25.739Z,11.57
2022-08-23T21:31:40.756Z,12.95
2022-08-23T21:35:54.840Z,12.50
2022-08-23T21:40:12.648Z,11.93
2022-08-23T21:44:26.684Z,13.55
2022-08-23T21:48:40.980Z,10.57
2022-08-23T21:52:56.654Z,12.10
2022-08-23T21:57:12.639Z,12.48
2022-08-23T22:01:27.266Z,11.18
2022-08-23T22:05:41.610Z,9.80
2022-08-23T22:09:55.651Z,11.98
2022-08-23T22:14:12.019Z,12.75
2022-08-23T22:18:25.875Z,13.23
2022-08-23T22:22:39.669Z,18.40
2022-08-23T22:26:53.566Z,13.23
2022-08-23T22:31:09.834Z,11.73
2022-08-23T22:35:23.904Z,12.93
2022-08-23T22:39:37.795Z,10.45
2022-08-23T22:43:52.749Z,11.77
2022-08-23T22:48:08.124Z,10.40
2022-08-23T22:52:22.061Z,13.80
2022-08-23T22:56:40.262Z,13.00
2022-08-23T23:00:54.804Z,11.17
2022-08-23T23:05:12.478Z,11.00
2022-08-23T23:09:27.622Z,13.68
2022-08-23T23:13:42.420Z,13.13
2022-08-23T23:17:56.670Z,15.13
2022-08-23T23:22:12.401Z,15.48
2022-08-23T23:26:26.666Z,23.98
2022-08-23T23:30:41.603Z,16.40
2022-08-23T23:34:55.419Z,13.55
2022-08-23T23:39:17.704Z,15.80
2022-08-23T23:43:31.537Z,13.30
2022-08-23T23:47:45.457Z,17.02
2022-08-23T23:51:59.507Z,19.88
2022-08-23T23:56:17.645Z,12.43
